Time;durP1;ratioP1;P1;durP2;ratioP2;P2;SDS_P1;SDS_P2;PMS_P1;PMS_P2;Temp;Humidity;BMP_temperature;BMP_pressure;BME280_temperature;BME280_humidity;BME280_pressure;Samples;Min_cycle;Max_cycle;Signal;HPM_P1;HPM_P2
2023/05/06 00:01:41;;;;;;;1.02;0.55;;;12.60;99.90;;;;;;5014966;28;20049;-65
2023/05/06 00:04:07;;;;;;;0.00;0.00;;;12.50;99.90;;;;;;5016139;28;20042;-65
2023/05/06 00:06:33;;;;;;;0.10;0.10;;;12.50;99.90;;;;;;5022712;28;20267;-65
2023/05/06 00:08:58;;;;;;;0.20;0.20;;;12.50;99.90;;;;;;5019081;28;20042;-65
2023/05/06 00:11:25;;;;;;;0.22;0.22;;;12.50;99.90;;;;;;5019277;28;20041;-66
2023/05/06 00:13:50;;;;;;;0.20;0.20;;;12.60;99.90;;;;;;5011270;28;20629;-66
2023/05/06 00:16:16;;;;;;;0.20;0.20;;;12.60;99.90;;;;;;5020443;28;20049;-65
2023/05/06 00:18:42;;;;;;;3.42;0.85;;;12.60;99.90;;;;;;5006646;28;20049;-65
2023/05/06 00:21:07;;;;;;;0.10;0.10;;;12.60;99.90;;;;;;5017230;28;20053;-65
2023/05/06 00:23:33;;;;;;;0.00;0.00;;;12.60;99.90;;;;;;5020255;28;20798;-65
2023/05/06 00:25:58;;;;;;;0.00;0.00;;;12.60;99.90;;;;;;5014417;28;20045;-65
2023/05/06 00:28:24;;;;;;;0.30;0.30;;;12.60;99.90;;;;;;5010723;28;20041;-65
2023/05/06 00:30:50;;;;;;;0.10;0.10;;;12.60;99.90;;;;;;5012088;28;20042;-65
2023/05/06 00:33:15;;;;;;;0.25;0.25;;;12.60;99.90;;;;;;5017104;28;20069;-65
2023/05/06 00:35:41;;;;;;;0.05;0.05;;;12.60;99.90;;;;;;5021250;28;20657;-65
2023/05/06 00:38:12;;;;;;;0.50;0.50;;;12.60;99.90;;;;;;5009511;28;20050;-65
2023/05/06 00:40:38;;;;;;;0.30;0.30;;;12.60;99.90;;;;;;5016144;28;20055;-65
2023/05/06 00:43:04;;;;;;;0.00;0.00;;;12.70;99.90;;;;;;5015467;28;20184;-65
2023/05/06 00:45:30;;;;;;;0.20;0.20;;;12.60;99.90;;;;;;5012018;28;20120;-65
2023/05/06 00:47:56;;;;;;;0.63;0.63;;;12.60;99.90;;;;;;5015220;28;20050;-65
2023/05/06 00:50:23;;;;;;;0.63;0.57;;;12.60;99.90;;;;;;5014245;28;20042;-65
2023/05/06 00:52:57;;;;;;;0.15;0.15;;;12.60;99.90;;;;;;5075996;28;20848;-66
2023/05/06 00:55:23;;;;;;;0.35;0.35;;;12.60;99.90;;;;;;5057876;28;20523;-66
2023/05/06 00:57:50;;;;;;;0.20;0.20;;;12.50;99.90;;;;;;5052042;28;20037;-65
2023/05/06 01:00:19;;;;;;;0.00;0.00;;;12.50;99.90;;;;;;5061988;28;20132;-65
2023/05/06 01:02:46;;;;;;;0.10;0.10;;;12.60;99.90;;;;;;5055423;28;20049;-66
2023/05/06 01:05:12;;;;;;;0.20;0.20;;;12.60;99.90;;;;;;5062102;28;20102;-65
2023/05/06 01:08:05;;;;;;;0.30;0.30;;;12.60;99.90;;;;;;5049399;28;20095;-66
2023/05/06 01:10:52;;;;;;;0.10;0.10;;;12.50;99.90;;;;;;5063113;28;20833;-66
2023/05/06 01:13:26;;;;;;;0.50;0.50;;;12.50;99.90;;;;;;5051040;28;20385;-66
2023/05/06 01:15:54;;;;;;;0.32;0.22;;;12.50;99.90;;;;;;5049308;28;20045;-66
2023/05/06 01:18:21;;;;;;;0.03;0.03;;;12.50;99.90;;;;;;5057929;28;20045;-66
2023/05/06 01:20:51;;;;;;;0.10;0.10;;;12.50;99.90;;;;;;5057748;28;20057;-65
2023/05/06 01:23:18;;;;;;;0.20;0.20;;;12.40;99.90;;;;;;5052082;28;20499;-65
2023/05/06 01:25:44;;;;;;;0.20;0.20;;;12.40;99.90;;;;;;5044717;28;20069;-65
2023/05/06 01:28:11;;;;;;;0.32;0.32;;;12.40;99.90;;;;;;5047047;28;20033;-65
2023/05/06 01:31:16;;;;;;;0.40;0.40;;;12.40;99.90;;;;;;5050550;28;20042;-65
2023/05/06 01:33:56;;;;;;;0.38;0.38;;;12.40;99.90;;;;;;5045435;28;20049;-65
2023/05/06 01:36:47;;;;;;;0.20;0.20;;;12.40;99.90;;;;;;5049688;28;20067;-65
2023/05/06 01:39:21;;;;;;;0.25;0.25;;;12.40;99.90;;;;;;5053618;28;20052;-65
2023/05/06 01:41:48;;;;;;;0.05;0.05;;;12.40;99.90;;;;;;5046482;28;20498;-65
2023/05/06 01:44:16;;;;;;;0.20;0.20;;;12.40;99.90;;;;;;5044639;28;20044;-66
2023/05/06 01:46:43;;;;;;;0.15;0.15;;;12.30;99.90;;;;;;5046542;28;20057;-66
2023/05/06 01:49:11;;;;;;;0.30;0.30;;;12.30;99.90;;;;;;5051398;28;20037;-65
2023/05/06 01:51:37;;;;;;;0.00;0.00;;;12.30;99.90;;;;;;5047428;28;20053;-66
2023/05/06 01:54:04;;;;;;;0.00;0.00;;;12.10;99.90;;;;;;5044629;28;20053;-65
2023/05/06 01:56:29;;;;;;;0.00;0.00;;;12.10;99.90;;;;;;5049039;28;20037;-65
2023/05/06 01:58:56;;;;;;;0.40;0.40;;;12.10;99.90;;;;;;5056681;28;20094;-65
2023/05/06 02:01:22;;;;;;;0.10;0.10;;;12.10;99.90;;;;;;5054516;28;20037;-65
2023/05/06 02:03:47;;;;;;;0.52;0.52;;;12.10;99.90;;;;;;5037450;28;20097;-65
2023/05/06 02:06:13;;;;;;;0.10;0.10;;;12.00;99.90;;;;;;5037905;28;20033;-65
2023/05/06 02:08:42;;;;;;;0.20;0.20;;;12.00;99.90;;;;;;5041739;28;20417;-65
2023/05/06 02:11:08;;;;;;;0.20;0.20;;;12.00;99.90;;;;;;5037176;28;20041;-65
2023/05/06 02:13:33;;;;;;;0.13;0.13;;;11.90;99.90;;;;;;5042545;28;21263;-65
2023/05/06 02:15:59;;;;;;;0.10;0.10;;;11.90;99.90;;;;;;5035159;28;20045;-65
2023/05/06 02:18:24;;;;;;;0.20;0.20;;;11.90;99.90;;;;;;5031899;28;20041;-65
2023/05/06 02:20:50;;;;;;;0.32;0.32;;;11.90;99.90;;;;;;5032025;28;20429;-65
2023/05/06 02:23:16;;;;;;;0.03;0.03;;;11.90;99.90;;;;;;5042059;28;20066;-65
2023/05/06 02:25:42;;;;;;;0.77;0.75;;;11.90;99.90;;;;;;5030789;28;20044;-65
2023/05/06 02:28:07;;;;;;;0.10;0.10;;;11.90;99.90;;;;;;5036384;28;20493;-65
2023/05/06 02:30:33;;;;;;;0.10;0.10;;;11.90;99.90;;;;;;5041735;28;20052;-65
2023/05/06 02:32:59;;;;;;;0.10;0.10;;;11.90;99.90;;;;;;5039635;28;20045;-65
2023/05/06 02:35:24;;;;;;;0.10;0.10;;;12.00;99.90;;;;;;5032188;28;20561;-65
2023/05/06 02:37:50;;;;;;;0.70;0.43;;;11.90;99.90;;;;;;5045800;28;20056;-65
2023/05/06 02:40:15;;;;;;;0.35;0.35;;;12.00;99.90;;;;;;5030530;28;20048;-65
2023/05/06 02:42:41;;;;;;;0.08;0.08;;;12.00;99.90;;;;;;5031429;28;20096;-66
2023/05/06 02:45:07;;;;;;;0.20;0.20;;;12.00;99.90;;;;;;5042246;28;20055;-65
2023/05/06 02:47:33;;;;;;;2.55;1.30;;;12.00;99.90;;;;;;5031673;28;20037;-65
2023/05/06 02:49:58;;;;;;;0.00;0.00;;;12.00;99.90;;;;;;5034143;28;20045;-65
2023/05/06 02:52:24;;;;;;;0.10;0.10;;;12.00;99.90;;;;;;5035720;28;20049;-66
2023/05/06 02:54:50;;;;;;;0.00;0.00;;;12.00;99.90;;;;;;5031060;28;20044;-65
2023/05/06 02:57:16;;;;;;;0.10;0.10;;;11.90;99.90;;;;;;5039789;28;20033;-66
2023/05/06 02:59:41;;;;;;;0.10;0.10;;;12.00;99.90;;;;;;5047405;28;20052;-65
2023/05/06 03:02:07;;;;;;;0.43;0.43;;;12.00;99.90;;;;;;5038152;28;20552;-65
2023/05/06 03:04:32;;;;;;;0.05;0.05;;;12.00;99.90;;;;;;5045237;28;20061;-65
2023/05/06 03:06:58;;;;;;;0.17;0.17;;;12.00;99.90;;;;;;5043404;28;20037;-66
2023/05/06 03:09:24;;;;;;;0.20;0.20;;;12.00;99.90;;;;;;5029804;28;20094;-66
2023/05/06 03:11:49;;;;;;;0.08;0.08;;;12.00;99.90;;;;;;5034763;28;20045;-66
2023/05/06 03:14:15;;;;;;;0.10;0.10;;;11.90;99.90;;;;;;5037378;28;20124;-66
2023/05/06 03:16:40;;;;;;;0.00;0.00;;;12.00;99.90;;;;;;5040146;28;20049;-65
2023/05/06 03:19:06;;;;;;;0.10;0.10;;;12.00;99.90;;;;;;5031416;28;20041;-65
2023/05/06 03:21:32;;;;;;;0.15;0.15;;;12.00;99.90;;;;;;5038238;28;20499;-65
2023/05/06 03:23:58;;;;;;;1.40;0.43;;;12.00;99.90;;;;;;5045004;28;20037;-65
2023/05/06 03:26:23;;;;;;;0.20;0.13;;;12.00;99.90;;;;;;5045853;28;20041;-66
2023/05/06 03:28:49;;;;;;;0.10;0.10;;;12.00;99.90;;;;;;5033962;28;20067;-65
2023/05/06 03:31:15;;;;;;;0.10;0.10;;;12.00;99.90;;;;;;5043670;28;20086;-66
2023/05/06 03:33:40;;;;;;;0.43;0.43;;;12.00;99.90;;;;;;5038646;28;20043;-65
2023/05/06 03:36:06;;;;;;;0.52;0.52;;;12.00;99.90;;;;;;5048410;28;20041;-66
2023/05/06 03:38:31;;;;;;;0.00;0.00;;;11.90;99.90;;;;;;5033993;28;20079;-66
2023/05/06 03:40:57;;;;;;;0.10;0.10;;;12.00;99.90;;;;;;5032181;28;20045;-66
2023/05/06 03:43:23;;;;;;;0.88;0.30;;;12.00;99.90;;;;;;5037686;28;20550;-66
2023/05/06 03:45:48;;;;;;;0.00;0.00;;;12.00;99.90;;;;;;5033925;28;20048;-66
2023/05/06 03:48:14;;;;;;;0.22;0.22;;;12.00;99.90;;;;;;5033784;28;20045;-65
2023/05/06 03:50:40;;;;;;;0.10;0.10;;;12.00;99.90;;;;;;5031692;28;20132;-66
2023/05/06 03:53:05;;;;;;;0.28;0.28;;;12.00;99.90;;;;;;5044395;28;20053;-66
2023/05/06 03:55:31;;;;;;;1.35;1.25;;;12.00;99.90;;;;;;5040887;28;20109;-67
2023/05/06 03:57:57;;;;;;;0.00;0.00;;;12.00;99.90;;;;;;5036052;28;20049;-67
2023/05/06 04:00:22;;;;;;;0.13;0.13;;;12.00;99.90;;;;;;5044631;28;20048;-67
2023/05/06 04:02:48;;;;;;;0.20;0.20;;;11.90;99.90;;;;;;5030853;28;20040;-67
2023/05/06 04:05:13;;;;;;;0.47;0.47;;;11.90;99.90;;;;;;5034459;28;20072;-67
2023/05/06 04:07:39;;;;;;;0.10;0.10;;;12.00;99.90;;;;;;5035382;28;20068;-66
2023/05/06 04:10:05;;;;;;;0.00;0.00;;;12.00;99.90;;;;;;5033103;28;20487;-66
2023/05/06 04:12:31;;;;;;;0.20;0.20;;;12.00;99.90;;;;;;5037095;28;20045;-66
2023/05/06 04:14:56;;;;;;;0.03;0.03;;;12.10;99.90;;;;;;5037539;28;20045;-66
2023/05/06 04:17:22;;;;;;;0.28;0.28;;;12.00;99.90;;;;;;5040627;28;20056;-66
2023/05/06 04:19:48;;;;;;;0.10;0.10;;;12.10;99.90;;;;;;5033707;28;20048;-66
2023/05/06 04:22:13;;;;;;;0.28;0.22;;;12.10;99.90;;;;;;5031908;28;20128;-66
2023/05/06 04:24:40;;;;;;;1.10;0.57;;;12.10;99.90;;;;;;5038803;28;20040;-66
2023/05/06 04:27:06;;;;;;;0.10;0.10;;;12.10;99.90;;;;;;5033329;28;20040;-66
2023/05/06 04:29:32;;;;;;;0.32;0.32;;;12.10;99.90;;;;;;5033220;28;20029;-66
2023/05/06 04:31:57;;;;;;;0.30;0.30;;;12.10;99.90;;;;;;5035734;28;20103;-66
2023/05/06 04:34:23;;;;;;;0.00;0.00;;;12.10;99.90;;;;;;5044059;28;20120;-66
2023/05/06 04:36:49;;;;;;;0.30;0.20;;;12.10;99.90;;;;;;5043464;28;20063;-66
2023/05/06 04:39:16;;;;;;;0.30;0.30;;;12.20;99.90;;;;;;5033005;28;20645;-66
2023/05/06 04:41:43;;;;;;;0.10;0.10;;;12.10;99.90;;;;;;5036691;28;20052;-65
2023/05/06 04:44:09;;;;;;;0.20;0.20;;;12.10;99.90;;;;;;5044038;28;20045;-65
2023/05/06 04:46:34;;;;;;;0.68;0.68;;;12.20;99.90;;;;;;5040312;28;20038;-65
2023/05/06 04:49:00;;;;;;;3.90;0.40;;;12.20;99.90;;;;;;5029042;28;20037;-65
2023/05/06 04:51:26;;;;;;;0.82;0.73;;;12.20;99.90;;;;;;5039518;28;20049;-65
2023/05/06 04:53:51;;;;;;;0.17;0.17;;;12.10;99.90;;;;;;5036499;28;20726;-65
2023/05/06 04:56:17;;;;;;;0.45;0.45;;;12.20;99.90;;;;;;5040970;28;20068;-66
2023/05/06 04:58:42;;;;;;;0.10;0.10;;;12.20;99.90;;;;;;5033702;28;20049;-65
2023/05/06 05:01:09;;;;;;;0.73;0.73;;;12.20;99.90;;;;;;5043337;28;20486;-65
2023/05/06 05:03:35;;;;;;;1.85;1.05;;;12.20;99.90;;;;;;5029286;28;20048;-66
2023/05/06 05:06:00;;;;;;;0.00;0.00;;;12.20;99.90;;;;;;5041850;28;20041;-66
2023/05/06 05:08:26;;;;;;;0.38;0.38;;;12.20;99.90;;;;;;5046116;28;20033;-66
2023/05/06 05:10:52;;;;;;;5.50;0.60;;;12.30;99.90;;;;;;5038043;28;20060;-66
2023/05/06 05:13:18;;;;;;;0.10;0.10;;;12.30;99.90;;;;;;5028316;28;20049;-66
2023/05/06 05:15:43;;;;;;;0.22;0.17;;;12.30;99.90;;;;;;5031892;28;20037;-66
2023/05/06 05:18:09;;;;;;;0.15;0.15;;;12.40;99.90;;;;;;5031686;28;20040;-66
2023/05/06 05:20:35;;;;;;;0.43;0.43;;;12.40;99.90;;;;;;5038772;28;20049;-66
2023/05/06 05:23:00;;;;;;;0.00;0.00;;;12.40;99.90;;;;;;5031875;28;20048;-65
2023/05/06 05:25:26;;;;;;;1.40;1.30;;;12.50;99.90;;;;;;5034086;28;20039;-65
2023/05/06 05:27:51;;;;;;;0.65;0.65;;;12.50;99.90;;;;;;5045922;28;20397;-65
2023/05/06 05:30:17;;;;;;;0.20;0.20;;;12.50;99.90;;;;;;5027685;28;20060;-65
2023/05/06 05:32:43;;;;;;;0.38;0.38;;;12.60;99.90;;;;;;5031845;28;20037;-65
2023/05/06 05:35:11;;;;;;;0.20;0.20;;;12.60;99.90;;;;;;5036437;28;20115;-65
2023/05/06 05:37:37;;;;;;;0.30;0.30;;;12.60;99.90;;;;;;5031129;28;20049;-65
2023/05/06 05:40:03;;;;;;;0.00;0.00;;;12.60;99.90;;;;;;5034655;28;20648;-66
2023/05/06 05:42:32;;;;;;;0.10;0.10;;;12.60;99.90;;;;;;5035621;28;20040;-65
2023/05/06 05:44:58;;;;;;;0.22;0.22;;;12.70;99.90;;;;;;5032333;28;20041;-66
2023/05/06 05:47:24;;;;;;;0.13;0.13;;;12.70;99.90;;;;;;5037945;28;20052;-65
2023/05/06 05:49:50;;;;;;;0.63;0.63;;;12.70;99.90;;;;;;5033582;28;20050;-65
2023/05/06 05:52:15;;;;;;;0.17;0.17;;;12.70;99.90;;;;;;5041438;28;20053;-64
2023/05/06 05:54:41;;;;;;;0.75;0.73;;;12.70;99.90;;;;;;5038448;28;20057;-65
2023/05/06 05:57:06;;;;;;;0.43;0.43;;;12.80;99.90;;;;;;5043047;28;20120;-65
2023/05/06 05:59:32;;;;;;;0.08;0.08;;;12.80;99.90;;;;;;5046539;28;20033;-65
2023/05/06 06:01:58;;;;;;;0.00;0.00;;;12.80;99.90;;;;;;5032210;28;20484;-65
2023/05/06 06:04:24;;;;;;;0.30;0.30;;;12.80;99.90;;;;;;5036342;28;20045;-65
2023/05/06 06:06:50;;;;;;;0.43;0.32;;;12.90;99.90;;;;;;5034619;28;20410;-65
2023/05/06 06:09:16;;;;;;;0.10;0.10;;;12.80;99.90;;;;;;5040603;28;20034;-65
2023/05/06 06:11:41;;;;;;;0.20;0.20;;;12.90;99.90;;;;;;5041176;28;20067;-65
2023/05/06 06:14:07;;;;;;;0.20;0.20;;;12.90;99.90;;;;;;5045619;28;20036;-65
2023/05/06 06:16:33;;;;;;;0.30;0.30;;;12.90;99.90;;;;;;5040673;28;20823;-65
2023/05/06 06:18:58;;;;;;;0.00;0.00;;;12.90;99.90;;;;;;5047463;28;20175;-65
2023/05/06 06:21:24;;;;;;;0.10;0.10;;;12.90;99.90;;;;;;5042075;28;20180;-65
2023/05/06 06:23:50;;;;;;;1.02;0.93;;;13.00;99.90;;;;;;5032116;28;20034;-65
2023/05/06 06:26:15;;;;;;;0.20;0.20;;;13.00;99.90;;;;;;5040088;28;20056;-65
2023/05/06 06:28:43;;;;;;;0.52;0.52;;;13.00;99.90;;;;;;5045011;28;20049;-65
2023/05/06 06:31:09;;;;;;;0.70;0.70;;;13.10;99.90;;;;;;5048134;28;20041;-65
2023/05/06 06:33:34;;;;;;;0.00;0.00;;;13.10;99.90;;;;;;5030917;28;20049;-65
2023/05/06 06:36:00;;;;;;;0.05;0.05;;;13.10;99.90;;;;;;5038345;28;20037;-65
2023/05/06 06:38:26;;;;;;;0.00;0.00;;;13.20;99.90;;;;;;5033094;28;20055;-65
2023/05/06 06:40:52;;;;;;;0.10;0.10;;;13.30;99.90;;;;;;5035465;28;20397;-65
2023/05/06 06:43:22;;;;;;;0.08;0.08;;;13.40;99.90;;;;;;5036398;28;20076;-66
2023/05/06 06:45:48;;;;;;;0.00;0.00;;;13.40;99.90;;;;;;5041271;28;20122;-66
2023/05/06 06:48:14;;;;;;;0.00;0.00;;;13.50;99.90;;;;;;5047823;28;20044;-66
2023/05/06 06:50:39;;;;;;;0.57;0.57;;;13.50;99.90;;;;;;5037696;28;20041;-65
2023/05/06 06:53:05;;;;;;;0.38;0.38;;;13.50;99.90;;;;;;5037638;28;20049;-65
2023/05/06 06:55:31;;;;;;;0.00;0.00;;;13.60;99.90;;;;;;5045959;28;20052;-65
2023/05/06 06:57:56;;;;;;;0.35;0.35;;;13.70;99.90;;;;;;5039513;28;20033;-65
2023/05/06 07:00:22;;;;;;;0.10;0.10;;;13.80;99.90;;;;;;5028172;28;20124;-65
2023/05/06 07:02:48;;;;;;;0.08;0.08;;;13.90;99.90;;;;;;5030885;28;20057;-66
2023/05/06 07:05:14;;;;;;;0.80;0.35;;;13.90;99.90;;;;;;5030740;28;20050;-65
2023/05/06 07:07:39;;;;;;;0.00;0.00;;;13.90;99.90;;;;;;5041982;28;20033;-66
2023/05/06 07:10:06;;;;;;;0.28;0.28;;;13.90;99.90;;;;;;5030374;28;20409;-65
2023/05/06 07:12:32;;;;;;;0.00;0.00;;;14.00;99.90;;;;;;5039429;28;20265;-65
2023/05/06 07:14:57;;;;;;;0.00;0.00;;;14.00;99.90;;;;;;5039192;28;20599;-66
2023/05/06 07:17:23;;;;;;;0.80;0.73;;;14.10;99.90;;;;;;5056198;28;20061;-65
2023/05/06 07:19:48;;;;;;;0.00;0.00;;;14.10;99.90;;;;;;5034515;28;20045;-65
2023/05/06 07:22:14;;;;;;;0.00;0.00;;;14.10;99.90;;;;;;5030394;28;20069;-65
2023/05/06 07:24:40;;;;;;;0.10;0.10;;;14.20;99.90;;;;;;5037442;28;20048;-65
2023/05/06 07:27:05;;;;;;;0.00;0.00;;;14.30;99.90;;;;;;5042605;28;20400;-66
2023/05/06 07:29:31;;;;;;;0.45;0.45;;;14.30;99.90;;;;;;5030341;28;20163;-65
2023/05/06 07:31:56;;;;;;;0.00;0.00;;;14.40;99.90;;;;;;5038692;28;20508;-65
2023/05/06 07:34:22;;;;;;;0.00;0.00;;;14.50;99.90;;;;;;5031909;28;20041;-65
2023/05/06 07:36:48;;;;;;;0.20;0.20;;;14.50;99.90;;;;;;5030998;28;20455;-65
2023/05/06 07:39:13;;;;;;;0.20;0.20;;;14.60;99.90;;;;;;5029796;28;20045;-65
2023/05/06 07:41:39;;;;;;;0.00;0.00;;;14.50;99.90;;;;;;5036515;28;20040;-66
2023/05/06 07:44:05;;;;;;;0.10;0.10;;;14.60;99.90;;;;;;5040843;28;20094;-66
2023/05/06 07:46:31;;;;;;;0.30;0.30;;;14.70;99.90;;;;;;5043078;28;20048;-66
2023/05/06 07:48:56;;;;;;;0.30;0.30;;;14.70;99.90;;;;;;5040301;28;20048;-66
2023/05/06 07:51:22;;;;;;;0.03;0.03;;;14.70;99.90;;;;;;5037470;28;20060;-67
2023/05/06 07:53:47;;;;;;;0.10;0.10;;;14.80;99.90;;;;;;5036497;28;20060;-67
2023/05/06 07:56:13;;;;;;;0.00;0.00;;;14.90;99.90;;;;;;5042529;28;20061;-67
2023/05/06 07:58:39;;;;;;;0.10;0.10;;;14.90;99.90;;;;;;5029082;28;20034;-67
2023/05/06 08:01:05;;;;;;;2.10;0.52;;;15.00;99.90;;;;;;5045300;28;20041;-67
2023/05/06 08:03:30;;;;;;;0.10;0.10;;;15.00;99.90;;;;;;5046388;28;20124;-67
2023/05/06 08:05:56;;;;;;;0.15;0.15;;;15.00;99.90;;;;;;5033105;28;20543;-67
2023/05/06 08:08:22;;;;;;;0.43;0.43;;;15.10;99.90;;;;;;5036723;28;20041;-67
2023/05/06 08:10:48;;;;;;;0.28;0.28;;;15.20;99.90;;;;;;5044497;28;20053;-67
2023/05/06 08:13:14;;;;;;;0.40;0.40;;;15.20;99.90;;;;;;5041377;28;20047;-67
2023/05/06 08:15:39;;;;;;;0.00;0.00;;;15.20;99.90;;;;;;5034220;28;20044;-67
2023/05/06 08:18:05;;;;;;;0.20;0.20;;;15.30;99.90;;;;;;5042440;28;20049;-67
2023/05/06 08:20:31;;;;;;;0.20;0.20;;;15.30;99.90;;;;;;5029754;28;20073;-67
2023/05/06 08:22:57;;;;;;;0.10;0.10;;;15.30;99.90;;;;;;5034101;28;20098;-67
2023/05/06 08:25:22;;;;;;;0.70;0.70;;;15.40;99.90;;;;;;5042321;28;20032;-67
2023/05/06 08:27:48;;;;;;;0.00;0.00;;;15.50;99.90;;;;;;5043987;28;20091;-66
2023/05/06 08:30:14;;;;;;;0.10;0.10;;;15.50;99.90;;;;;;5032547;28;20041;-66
2023/05/06 08:32:40;;;;;;;0.00;0.00;;;15.60;99.90;;;;;;5031526;28;20120;-66
2023/05/06 08:35:06;;;;;;;0.47;0.35;;;15.70;99.90;;;;;;5031973;28;20120;-67
2023/05/06 08:37:32;;;;;;;0.00;0.00;;;15.70;99.90;;;;;;5044736;28;20049;-67
2023/05/06 08:39:58;;;;;;;0.75;0.63;;;15.80;99.90;;;;;;5031132;28;20390;-68
2023/05/06 08:42:25;;;;;;;0.00;0.00;;;15.80;99.90;;;;;;5036773;28;20122;-67
2023/05/06 08:44:51;;;;;;;0.03;0.03;;;15.90;99.90;;;;;;5029776;28;20109;-67
2023/05/06 08:47:19;;;;;;;0.20;0.20;;;15.90;99.90;;;;;;5044869;28;20120;-67
2023/05/06 08:49:44;;;;;;;0.10;0.10;;;16.00;99.90;;;;;;5031296;28;20076;-68
2023/05/06 08:52:10;;;;;;;0.00;0.00;;;16.30;99.90;;;;;;5031187;28;20107;-68
2023/05/06 08:54:37;;;;;;;0.00;0.00;;;16.80;99.90;;;;;;5026139;28;20065;-67
2023/05/06 08:57:09;;;;;;;0.10;0.10;;;17.30;99.90;;;;;;5034203;28;20091;-67
2023/05/06 08:59:35;;;;;;;0.20;0.20;;;17.90;99.90;;;;;;5044007;28;20041;-67
2023/05/06 09:02:02;;;;;;;0.03;0.03;;;18.40;99.90;;;;;;5035554;28;20048;-67
2023/05/06 09:04:29;;;;;;;0.00;0.00;;;18.90;99.90;;;;;;5039154;28;20120;-67
2023/05/06 09:06:56;;;;;;;6.85;1.73;;;19.30;99.90;;;;;;5036399;28;20497;-67
2023/05/06 09:09:22;;;;;;;0.00;0.00;;;19.60;99.90;;;;;;5060619;28;20389;-67
2023/05/06 09:11:53;;;;;;;0.20;0.20;;;19.70;99.90;;;;;;5040723;28;20052;-67
2023/05/06 09:14:20;;;;;;;0.88;0.40;;;19.80;99.90;;;;;;5040469;28;20052;-67
2023/05/06 09:16:48;;;;;;;0.10;0.10;;;19.70;99.90;;;;;;5047172;28;20048;-67
2023/05/06 09:19:14;;;;;;;3.00;1.27;;;19.90;99.90;;;;;;5049315;28;20048;-67
2023/05/06 09:21:43;;;;;;;1.55;0.93;;;20.00;99.90;;;;;;5043910;28;20041;-67
2023/05/06 09:24:10;;;;;;;0.43;0.43;;;20.20;99.90;;;;;;5048397;28;20133;-67
2023/05/06 09:26:37;;;;;;;5.57;0.88;;;20.20;99.90;;;;;;5044849;28;20112;-67
2023/05/06 09:29:04;;;;;;;0.73;0.65;;;20.10;99.90;;;;;;5038155;28;20029;-67
2023/05/06 09:31:30;;;;;;;2.50;0.85;;;20.20;99.90;;;;;;5048493;28;20739;-67
2023/05/06 09:33:58;;;;;;;0.65;0.65;;;20.00;99.90;;;;;;5042639;28;20130;-68
2023/05/06 09:36:26;;;;;;;1.27;1.17;;;19.80;99.90;;;;;;5035995;28;20045;-68
2023/05/06 09:38:55;;;;;;;0.13;0.13;;;19.80;99.90;;;;;;5046346;28;20554;-68
2023/05/06 09:41:24;;;;;;;0.13;0.13;;;19.90;99.90;;;;;;5043937;28;20041;-68
2023/05/06 09:43:55;;;;;;;1.95;0.75;;;19.90;99.90;;;;;;5028364;28;20053;-68
2023/05/06 09:46:21;;;;;;;0.60;0.60;;;20.20;99.90;;;;;;5040991;28;20076;-69
2023/05/06 09:48:52;;;;;;;0.00;0.00;;;19.90;99.90;;;;;;5047057;28;20052;-68
2023/05/06 09:51:19;;;;;;;2.13;0.28;;;20.20;99.90;;;;;;5036076;28;20140;-68
2023/05/06 09:53:46;;;;;;;0.13;0.13;;;20.30;99.90;;;;;;5033431;28;20476;-69
2023/05/06 09:56:14;;;;;;;0.32;0.32;;;20.10;99.90;;;;;;5049803;28;20049;-68
2023/05/06 09:58:40;;;;;;;0.30;0.30;;;20.00;99.90;;;;;;5030840;28;20099;-69
2023/05/06 10:01:07;;;;;;;0.57;0.20;;;19.60;99.90;;;;;;5040103;28;20393;-69
2023/05/06 10:03:34;;;;;;;2.13;0.60;;;19.30;99.90;;;;;;5033995;28;20045;-68
2023/05/06 10:06:01;;;;;;;0.60;0.60;;;19.20;99.90;;;;;;5036106;28;20049;-69
2023/05/06 10:08:28;;;;;;;1.75;0.77;;;19.00;99.90;;;;;;5038002;28;20038;-69
2023/05/06 10:10:54;;;;;;;0.00;0.00;;;18.80;99.90;;;;;;5042839;28;20033;-68
2023/05/06 10:13:21;;;;;;;0.28;0.28;;;18.70;99.90;;;;;;5048605;28;20148;-68
2023/05/06 10:15:48;;;;;;;0.15;0.15;;;18.70;99.90;;;;;;5047079;28;20045;-69
2023/05/06 10:18:22;;;;;;;0.15;0.15;;;18.50;99.90;;;;;;5052772;28;20374;-68
2023/05/06 10:20:50;;;;;;;0.55;0.55;;;18.40;99.90;;;;;;5037833;28;20055;-68
2023/05/06 10:23:20;;;;;;;0.30;0.30;;;18.40;99.90;;;;;;5036820;28;20041;-68
2023/05/06 10:25:50;;;;;;;0.30;0.30;;;18.40;99.90;;;;;;5039232;28;20049;-68
2023/05/06 10:28:17;;;;;;;2.53;1.92;;;18.70;99.90;;;;;;5039541;28;20106;-68
2023/05/06 10:30:43;;;;;;;0.10;0.10;;;19.00;99.90;;;;;;5045497;28;20041;-68
2023/05/06 10:33:13;;;;;;;0.10;0.10;;;19.20;99.90;;;;;;5044491;28;20084;-68
2023/05/06 10:35:49;;;;;;;0.10;0.10;;;19.10;99.90;;;;;;5044141;28;20098;-68
2023/05/06 10:38:26;;;;;;;0.00;0.00;;;19.10;99.90;;;;;;5034700;28;20080;-68
2023/05/06 10:40:53;;;;;;;0.43;0.43;;;19.30;99.90;;;;;;5046026;28;20072;-68
2023/05/06 10:43:22;;;;;;;0.05;0.05;;;19.80;99.90;;;;;;5035663;28;20496;-68
2023/05/06 10:46:07;;;;;;;0.63;0.40;;;19.70;99.90;;;;;;5039872;28;20514;-68
2023/05/06 10:48:34;;;;;;;0.43;0.43;;;19.40;99.90;;;;;;5053015;28;20481;-68
2023/05/06 10:51:15;;;;;;;0.47;0.47;;;19.20;99.90;;;;;;5043452;28;20056;-68
2023/05/06 10:54:05;;;;;;;0.57;0.40;;;19.30;99.90;;;;;;5041665;28;20044;-68
2023/05/06 10:56:39;;;;;;;0.00;0.00;;;19.50;99.90;;;;;;5048028;28;20071;-68
2023/05/06 10:59:10;;;;;;;2.33;1.63;;;19.70;99.90;;;;;;5036709;28;20092;-68
2023/05/06 11:01:40;;;;;;;0.20;0.20;;;19.90;99.90;;;;;;5036183;28;20154;-68
2023/05/06 11:04:08;;;;;;;0.43;0.38;;;20.10;99.90;;;;;;5032327;28;20029;-68
2023/05/06 11:06:45;;;;;;;2.00;0.73;;;20.40;99.90;;;;;;5028782;28;20076;-67
2023/05/06 11:09:17;;;;;;;0.32;0.32;;;20.60;99.90;;;;;;5029737;28;20048;-67
2023/05/06 11:11:57;;;;;;;0.43;0.43;;;20.90;99.90;;;;;;5038462;28;20076;-67
2023/05/06 11:14:26;;;;;;;0.20;0.20;;;20.90;99.90;;;;;;5045918;28;20323;-67
2023/05/06 11:16:52;;;;;;;0.85;0.75;;;20.70;99.90;;;;;;5033535;28;20049;-67
2023/05/06 11:19:22;;;;;;;0.22;0.22;;;20.40;99.90;;;;;;5031591;28;20456;-67
2023/05/06 11:21:48;;;;;;;0.00;0.00;;;20.20;99.90;;;;;;5034500;28;20049;-67
2023/05/06 11:24:20;;;;;;;1.02;0.93;;;19.90;99.90;;;;;;5045141;28;20041;-67
2023/05/06 11:26:46;;;;;;;0.20;0.20;;;19.70;99.90;;;;;;5035179;28;20056;-67
2023/05/06 11:29:15;;;;;;;0.22;0.22;;;19.60;99.90;;;;;;5033907;28;20121;-67
2023/05/06 11:31:42;;;;;;;0.65;0.57;;;19.50;99.90;;;;;;5037040;28;20045;-67
2023/05/06 11:34:12;;;;;;;1.42;1.33;;;19.40;99.90;;;;;;5039059;28;20186;-67
2023/05/06 11:37:05;;;;;;;1.30;1.20;;;19.90;99.90;;;;;;5034886;28;20116;-67
2023/05/06 11:39:35;;;;;;;0.08;0.08;;;20.20;99.90;;;;;;5039953;28;20056;-66
2023/05/06 11:42:08;;;;;;;0.80;0.47;;;20.60;99.90;;;;;;5045244;28;20515;-67
2023/05/06 11:44:37;;;;;;;1.60;0.65;;;20.80;99.90;;;;;;5035838;28;20044;-67
2023/05/06 11:47:04;;;;;;;1.77;1.67;;;21.00;99.90;;;;;;5047986;28;20133;-67
2023/05/06 11:49:40;;;;;;;2.50;1.05;;;21.00;99.90;;;;;;5034339;28;20063;-67
2023/05/06 11:52:11;;;;;;;0.43;0.43;;;21.40;99.90;;;;;;5033195;28;21059;-67
2023/05/06 11:54:41;;;;;;;0.00;0.00;;;21.50;99.90;;;;;;5033252;28;20112;-67
2023/05/06 11:57:07;;;;;;;0.20;0.20;;;21.70;99.90;;;;;;5041947;28;20048;-67
2023/05/06 11:59:36;;;;;;;0.93;0.45;;;21.80;99.90;;;;;;5033627;28;20049;-67
2023/05/06 12:02:04;;;;;;;1.75;0.40;;;21.60;99.90;;;;;;5031431;28;20048;-67
2023/05/06 12:04:44;;;;;;;0.28;0.20;;;21.70;99.90;;;;;;5039773;28;20032;-67
2023/05/06 12:07:11;;;;;;;0.15;0.15;;;21.20;99.90;;;;;;5044271;28;20079;-66
2023/05/06 12:09:41;;;;;;;0.10;0.10;;;21.10;99.90;;;;;;5042781;28;20396;-67
2023/05/06 12:12:07;;;;;;;0.00;0.00;;;21.00;99.90;;;;;;5040805;28;20093;-67
2023/05/06 12:14:35;;;;;;;1.75;0.32;;;21.10;99.90;;;;;;5041280;28;20502;-67
2023/05/06 12:17:02;;;;;;;0.85;0.63;;;21.40;99.90;;;;;;5040637;28;20037;-67
2023/05/06 12:19:28;;;;;;;0.43;0.43;;;21.70;99.90;;;;;;5031596;28;20556;-67
2023/05/06 12:21:54;;;;;;;3.03;0.25;;;21.90;99.90;;;;;;5038920;28;20044;-69
2023/05/06 12:24:29;;;;;;;0.73;0.60;;;22.00;99.90;;;;;;5032852;28;20045;-68
2023/05/06 12:26:55;;;;;;;1.35;0.32;;;22.00;99.90;;;;;;5038066;28;20058;-68
2023/05/06 12:29:21;;;;;;;0.52;0.52;;;21.60;99.90;;;;;;5037347;28;20049;-68
2023/05/06 12:31:47;;;;;;;0.75;0.47;;;21.30;99.90;;;;;;5047556;28;20033;-68
2023/05/06 12:34:17;;;;;;;0.17;0.17;;;21.10;99.90;;;;;;5039345;28;20686;-68
2023/05/06 12:36:44;;;;;;;1.55;0.55;;;21.20;99.90;;;;;;5034604;28;20087;-68
2023/05/06 12:39:11;;;;;;;0.95;0.75;;;21.30;99.90;;;;;;5032194;28;20509;-69
2023/05/06 12:41:37;;;;;;;1.83;0.65;;;21.20;99.90;;;;;;5036442;28;20029;-69
2023/05/06 12:44:23;;;;;;;0.35;0.25;;;21.00;99.90;;;;;;5045807;28;20535;-69
2023/05/06 12:46:52;;;;;;;0.30;0.30;;;21.30;99.90;;;;;;5032916;28;20049;-69
2023/05/06 12:49:17;;;;;;;0.17;0.17;;;21.10;99.90;;;;;;5027159;28;20098;-69